img

Summary

Camp Peary (“The Farm”), also known as the Camp Peary Naval Reservation, located near Williamsburg and bordered by the York River in York County, Virginia, is widely alleged to be a CIA training facility.

FAA Information

FAA INFORMATION EFFECTIVE 25 AUGUST 2011

FAA Identifier:

W94

Lat/Long:

37-18-46.0594N / 076-38-17.5821W

37-18.767657N / 076-38.293035W

37.3127943 / -76.6382172

Elevation:

41 ft. / 12 m (estimated)

Variation:

11W (2010)

From city:

3 miles NE of WILLIAMSBURG, VA

Time zone:

UTC -4 (UTC -5 during Standard Time)

Zip code:

23188

Airport Operations

Airport use:

Private use, THIS FLD IS DOD RESTRICTED.

Activation date:

07/1958

Sectional chart:

WASHINGTON

Control tower:

no ARTCC:

WASHINGTON CENTER

FSS:

LEESBURG FLIGHT SERVICE STATION

Attendance:

MON-FRI 0800-1630

Wind indicator:

yes

Segmented circle:

no

Airport Communications

NORFOLK APPROACH:

125.7

NORFOLK DEPARTURE:

125.7

WX AWOS-3 at JGG (6 nm SW):

120.625 (757-220-8810)

WX ASOS at PHF (13 nm SE):

PHONE 757-874-3682

WX AWOS-3 at FYJ (14 nm NW):

132.825 (804-785-2307)

• APCH/DEP SVCS PRVDD BY ORF APCH ON 125.7/335.625.

Nearby radio navigation aids

VOR radial/distance VOR name Freq Var HCM r164/8.9 HARCUM VORTAC 108.80 07W HPW r098/22.8 HOPEWELL VORTAC 112.00 06W CCV r276/30.6 CAPE CHARLES VORTAC 112.20 10W ORF r327/32.8 NORFOLK VORTAC 116.90 07W RIC r118/34.4 RICHMOND VORTAC 114.10 09W

NDB name Hdg/Dist Freq Var ID FELKER 005/10.5 226 10W FAF ..-..-..-. HENRY 336/12.8 375 09W PJS .–..—… WAKEFIELD 050/26.3 274 09W AKQ .- -.- –.- PORTSMOUTH 354/33.3 241 10W PVG .–….- –.

Airport Services

Airframe service: NONE Powerplant service: NONE

Runway Information

Runway 5/23

Dimensions: 5018 x 151 ft. / 1529 x 46 m FLD CLSD TO ALL CIV & MIL ACFT WO PRIOR APVL OF BASE COMDR. Surface: asphalt RUNWAY 5 RUNWAY 23 Latitude: 37-18.448248N 37-19.087063N Longitude: 076-38.621737W 076-37.964333W Elevation: 40.8 ft. 31.3 ft. Traffic pattern: left left Touchdown point: yes, no lights yes, no lights

Airport Ownership and Management from official FAA records

Ownership: U.S. Army Owner: US ARMY ATCA-ASO CAMERON STATION ALEXANDRIA, VA 22314 Manager: DAVID J CROMLEY AFETA-CAMP PEARY WILLIAMSBURG, VA 23185 Phone 804-229-2121 COLONEL INFANTRY.

Additional Remarks

- CAUTION: FLD RSTD, PPR BY WRITTEN REQ TO BASE COMDR, ATTN: AIR OPS. EXC WHEN OPR UNDER PRIOR PERMS AUTH, PILOTS SHOULD MAINT AT LEAST 3000 FT ABV THE ARPT ELEV WITHIN 5 NM.

Instrument Procedures

NOTE: All procedures below are presented as PDF files. If you need a reader for these files, you should download the free Adobe Reader.

NOT FOR NAVIGATION. Please procure official charts for flight. FAA instrument procedures published for use between 25 August 2011 at 0901Z and 22 September 2011 at 0900Z.

IAPs - Instrument Approach Procedures RNAV (GPS) RWY 05 download (277KB) RNAV (GPS) RWY 23 download (190KB) VOR-A download (164KB) NOTE: Special Take-Off Minimums/Departure Procedures apply download (62KB)

Other nearby airports with instrument procedures:

KJGG - Williamsburg-Jamestown Airport (6 nm SW) KFAF - Felker Army Airfield (11 nm S) KPHF - Newport News/Williamsburg International Airport (13 nm SE) KFYJ - Middle Peninsula Regional Airport (14 nm NW) KLFI - Langley Air Force Base (19 nm SE) W75 - Hummel Field Airport (20 nm NE)

Sunrise and sunset

Times for 13-Sep-2011 Local (UTC-4) Zulu (UTC) Morning civil twilight 06:22 10:22 Sunrise 06:48 10:48 Sunset 19:17 23:17 Evening civil twilight 19:43 23:43

Current date and time

Zulu (UTC) 14-Sep-2011 03:47:54 Local (UTC-4) 13-Sep-2011 23:47:54

METAR

KJGG 6nm SW 140255Z AUTO 18007KT 10SM CLR 26/21 A2999 RMK AO1 KFAF 12nm S 140255Z AUTO 16006KT 10SM CLR 24/24 A2998 RMK AO2 SLP153 T02420242 50009 $ KPHF 13nm SE 140254Z 19006KT 10SM CLR 24/19 A2999 RMK AO2 SLP154 T02440194 50009 KFYJ 14nm NW 140255Z AUTO 15004KT 10SM CLR 23/21 A2999 RMK AO1 KLFI 20nm SE 140255Z AUTO 18010KT 10SM CLR 24/18 A2999 RMK AO2 SLP156 T02440177 50011 $

TAF

KFAF 12nm S 1402/1418 VRB06KT 9999 FEW050 SCT090 QNH2992INS T30/1418Z T20/1410Z AMD 140200 LAST NO AMDS AFT 1402 NEXT 1411 KPHF 13nm SE 131720Z 1318/1418 22007KT P6SM SCT040 FM140000 21004KT P6SM SKC FM141400 24007KT P6SM SKC KLFI 20nm SE 1401/1501 12009KT 9999 FEW050 SCT090 QNH2993INS TEMPO 1419/1421 25012G18KT 9000 -TSRA SCT020 BKN030CB T30/1417Z T20/1411Z LIMITED METWATCH 1401 TIL 1411

Sources

http://cryptome.org/cia-peary/cia-peary.htm

http://cryptome.org/eyeball/peary/peary-eyeball.htm

http://en.wikipedia.org/wiki/Camp_Peary

http://www.sourcewatch.org/index.php?title=Camp_Peary

http://www.airnav.com/airport/W94